createdAt,value
2018-03-02T00:00:29.617Z,98807.76
2018-03-02T00:02:57.232Z,98810.27
2018-03-02T00:05:24.619Z,98804.73
2018-03-02T00:07:52.014Z,98788.73
2018-03-02T00:10:20.452Z,98791.47
2018-03-02T00:12:47.971Z,98774.03
2018-03-02T00:15:15.368Z,98778.62
2018-03-02T00:17:42.853Z,98787.45
2018-03-02T00:20:10.334Z,98787.85
2018-03-02T00:22:37.771Z,98788.75
2018-03-02T00:25:05.641Z,98779.50
2018-03-02T00:27:33.117Z,98772.11
2018-03-02T00:30:00.644Z,98773.13
2018-03-02T00:32:28.035Z,98772.58
2018-03-02T00:34:55.419Z,98776.57
2018-03-02T00:37:22.801Z,98785.27
2018-03-02T00:39:50.189Z,98778.56
2018-03-02T00:42:17.589Z,98763.40
2018-03-02T00:44:44.986Z,98769.41
2018-03-02T00:47:12.377Z,98764.13
2018-03-02T00:49:40.316Z,98767.80
2018-03-02T00:52:07.748Z,98765.26
2018-03-02T00:54:35.328Z,98750.16
2018-03-02T00:57:02.721Z,98746.52
2018-03-02T00:59:30.110Z,98745.83
2018-03-02T01:01:57.585Z,98739.92
2018-03-02T01:04:25.131Z,98737.36
2018-03-02T01:06:52.512Z,98730.69
2018-03-02T01:09:19.899Z,98728.81
2018-03-02T01:11:47.293Z,98719.47
2018-03-02T01:14:14.690Z,98727.67
2018-03-02T01:16:42.085Z,98720.27
2018-03-02T01:19:10.383Z,98720.03
2018-03-02T01:21:37.777Z,98723.13
2018-03-02T01:24:05.213Z,98725.00
2018-03-02T01:26:32.609Z,98727.21
2018-03-02T01:29:00.012Z,98720.25
2018-03-02T01:31:27.497Z,98716.73
2018-03-02T01:33:54.906Z,98721.24
2018-03-02T01:36:22.340Z,98715.72
2018-03-02T01:38:49.741Z,98716.62
2018-03-02T01:41:17.122Z,98716.17
2018-03-02T01:43:44.521Z,98723.75
2018-03-02T01:46:11.933Z,98728.13
2018-03-02T01:48:39.325Z,98714.06
2018-03-02T01:51:06.779Z,98703.52
2018-03-02T01:53:34.192Z,98699.88
2018-03-02T01:56:01.566Z,98692.34
2018-03-02T01:58:28.968Z,98684.95
2018-03-02T02:00:56.448Z,98686.99
2018-03-02T02:03:23.833Z,98687.36
2018-03-02T02:05:51.242Z,98694.64
2018-03-02T02:08:18.804Z,98694.95
2018-03-02T02:10:46.181Z,98693.00
2018-03-02T02:13:13.568Z,98687.66
2018-03-02T02:15:40.992Z,98688.35
2018-03-02T02:18:08.372Z,98693.88
2018-03-02T02:20:36.024Z,98685.90
2018-03-02T02:23:03.477Z,98684.80
2018-03-02T02:25:30.924Z,98684.33
2018-03-02T02:27:58.310Z,98683.64
2018-03-02T02:30:25.697Z,98673.55
2018-03-02T02:32:53.104Z,98662.28
2018-03-02T02:35:20.559Z,98648.22
2018-03-02T02:37:47.946Z,98666.91
2018-03-02T02:40:15.383Z,98667.68
2018-03-02T02:42:42.839Z,98668.91
2018-03-02T02:45:10.754Z,98673.88
2018-03-02T02:47:38.149Z,98665.16
2018-03-02T02:50:05.532Z,98665.65
2018-03-02T02:52:32.918Z,98667.68
2018-03-02T02:55:00.325Z,98676.14
2018-03-02T02:57:27.903Z,98673.22
2018-03-02T02:59:55.548Z,98673.22
2018-03-02T03:02:22.945Z,98674.55
2018-03-02T03:04:50.395Z,98667.41
2018-03-02T03:07:17.845Z,98661.58
2018-03-02T03:09:45.232Z,98657.48
2018-03-02T03:12:12.689Z,98643.94
2018-03-02T03:14:41.545Z,98637.58
2018-03-02T03:17:09.826Z,98645.94
2018-03-02T03:19:37.221Z,98643.47
2018-03-02T03:22:04.609Z,98643.47
2018-03-02T03:24:32.002Z,98649.03
2018-03-02T03:26:59.384Z,98646.97
2018-03-02T03:29:26.829Z,98632.59
2018-03-02T03:31:54.216Z,98641.73
2018-03-02T03:34:21.687Z,98632.88
2018-03-02T03:36:49.089Z,98623.54
2018-03-02T03:39:16.528Z,98630.46
2018-03-02T03:41:43.928Z,98627.49
2018-03-02T03:44:11.322Z,98628.61
2018-03-02T03:46:38.711Z,98618.38
2018-03-02T03:49:06.120Z,98606.11
2018-03-02T03:51:33.881Z,98612.13
2018-03-02T03:54:01.381Z,98615.11
2018-03-02T03:56:28.791Z,98616.03
2018-03-02T03:58:56.180Z,98603.22
2018-03-02T04:01:23.591Z,98604.37
2018-03-02T04:03:50.977Z,98602.55
2018-03-02T04:06:18.443Z,98607.13
2018-03-02T04:08:45.863Z,98604.66
2018-03-02T04:11:13.232Z,98594.55
2018-03-02T04:13:41.342Z,98601.80
2018-03-02T04:16:08.716Z,98602.69
2018-03-02T04:18:36.180Z,98598.14
2018-03-02T04:21:03.552Z,98596.69
2018-03-02T04:23:30.966Z,98596.55
2018-03-02T04:25:58.333Z,98596.74
2018-03-02T04:28:25.742Z,98586.94
2018-03-02T04:30:53.180Z,98586.11
2018-03-02T04:33:20.573Z,98589.65
2018-03-02T04:35:47.964Z,98579.05
2018-03-02T04:38:15.345Z,98582.46
2018-03-02T04:40:42.734Z,98566.49
2018-03-02T04:43:10.137Z,98558.41
2018-03-02T04:45:37.570Z,98549.27
2018-03-02T04:48:04.924Z,98548.55
2018-03-02T04:50:32.337Z,98542.78
2018-03-02T04:52:59.750Z,98544.32
2018-03-02T04:55:27.117Z,98538.22
2018-03-02T04:57:54.517Z,98536.08
2018-03-02T05:00:22.000Z,98526.86
2018-03-02T05:02:49.397Z,98518.35
2018-03-02T05:05:16.788Z,98527.55
2018-03-02T05:07:44.181Z,98517.02
2018-03-02T05:10:11.611Z,98515.87
2018-03-02T05:12:38.992Z,98511.09
2018-03-02T05:15:06.390Z,98506.45
2018-03-02T05:17:33.774Z,98506.05
2018-03-02T05:20:01.205Z,98501.25
2018-03-02T05:22:28.595Z,98496.45
2018-03-02T05:24:55.993Z,98485.42
2018-03-02T05:27:23.360Z,98485.70
2018-03-02T05:29:50.753Z,98487.14
2018-03-02T05:32:18.215Z,98481.94
2018-03-02T05:34:45.634Z,98486.57
2018-03-02T05:37:13.032Z,98480.81
2018-03-02T05:39:40.416Z,98481.00
2018-03-02T05:42:07.824Z,98475.29
2018-03-02T05:44:35.680Z,98479.04
2018-03-02T05:47:03.095Z,98479.66
2018-03-02T05:49:30.790Z,98480.19
2018-03-02T05:51:58.223Z,98479.40
2018-03-02T05:54:25.819Z,98481.47
2018-03-02T05:56:53.234Z,98482.75
2018-03-02T05:59:20.759Z,98493.72
2018-03-02T06:01:48.393Z,98479.23
2018-03-02T06:04:16.998Z,98476.63
2018-03-02T06:06:44.745Z,98475.13
2018-03-02T06:09:12.453Z,98475.22
2018-03-02T06:11:40.695Z,98468.94
2018-03-02T06:14:09.086Z,98475.32
2018-03-02T06:16:37.134Z,98469.70
2018-03-02T06:19:05.153Z,98468.73
2018-03-02T06:21:32.833Z,98462.92
2018-03-02T06:24:01.005Z,98453.11
2018-03-02T06:26:29.823Z,98454.46
2018-03-02T06:28:57.279Z,98458.14
2018-03-02T06:31:24.769Z,98449.66
2018-03-02T06:33:52.251Z,98449.52
2018-03-02T06:36:19.699Z,98454.17
2018-03-02T06:38:47.093Z,98454.97
2018-03-02T06:41:14.958Z,98461.36
2018-03-02T06:43:42.388Z,98448.17
2018-03-02T06:46:09.857Z,98440.05
2018-03-02T06:48:37.478Z,98433.44
2018-03-02T06:51:05.070Z,98442.75
2018-03-02T06:53:32.733Z,98436.53
2018-03-02T06:56:01.150Z,98439.78
2018-03-02T06:58:28.557Z,98436.94
2018-03-02T07:00:56.044Z,98442.75
2018-03-02T07:03:23.647Z,98444.82
2018-03-02T07:05:51.086Z,98448.92
2018-03-02T07:08:18.463Z,98446.70
2018-03-02T07:10:45.856Z,98438.98
2018-03-02T07:13:13.310Z,98438.00
2018-03-02T07:15:40.862Z,98442.19
2018-03-02T07:18:08.261Z,98438.98
2018-03-02T07:20:35.883Z,98440.47
2018-03-02T07:23:03.414Z,98437.67
2018-03-02T07:25:30.891Z,98433.31
2018-03-02T07:27:58.395Z,98430.36
2018-03-02T07:30:25.784Z,98434.77
2018-03-02T07:32:53.191Z,98433.38
2018-03-02T07:35:20.623Z,98416.20
2018-03-02T07:37:48.070Z,98418.13
2018-03-02T07:40:15.623Z,98427.47
2018-03-02T07:42:43.106Z,98431.06
2018-03-02T07:45:10.501Z,98428.91
2018-03-02T07:47:37.884Z,98430.73
2018-03-02T07:50:05.396Z,98432.38
2018-03-02T07:52:32.824Z,98431.02
2018-03-02T07:55:00.221Z,98430.58
2018-03-02T07:57:27.655Z,98422.36
2018-03-02T07:59:55.010Z,98425.39
2018-03-02T08:02:22.599Z,98432.96
2018-03-02T08:04:50.013Z,98429.84
2018-03-02T08:07:17.481Z,98430.25
2018-03-02T08:09:44.894Z,98426.00
2018-03-02T08:12:12.317Z,98428.38
2018-03-02T08:14:39.707Z,98422.64
2018-03-02T08:17:07.093Z,98413.13
2018-03-02T08:19:35.902Z,98412.44
2018-03-02T08:22:03.409Z,98406.77
2018-03-02T08:24:30.919Z,98396.47
2018-03-02T08:26:58.321Z,98390.33
2018-03-02T08:29:25.730Z,98394.71
2018-03-02T08:31:53.481Z,98385.23
2018-03-02T08:34:20.930Z,98382.47
2018-03-02T08:36:48.336Z,98383.30
2018-03-02T08:39:15.721Z,98378.56
2018-03-02T08:41:43.304Z,98377.47
2018-03-02T08:44:10.682Z,98378.37
2018-03-02T08:46:38.256Z,98383.41
2018-03-02T08:49:05.623Z,98382.55
2018-03-02T08:51:33.028Z,98381.30
2018-03-02T08:54:00.407Z,98376.03
2018-03-02T08:56:27.798Z,98383.56
2018-03-02T08:58:55.180Z,98373.97
2018-03-02T09:01:22.625Z,98373.97
2018-03-02T09:03:50.026Z,98371.97
2018-03-02T09:06:17.557Z,98365.09
2018-03-02T09:08:44.892Z,98363.94
2018-03-02T09:11:16.496Z,98360.53
2018-03-02T09:13:43.968Z,98368.63
2018-03-02T09:16:11.540Z,98366.06
2018-03-02T09:18:39.036Z,98366.83
2018-03-02T09:21:06.429Z,98361.29
2018-03-02T09:23:33.811Z,98362.08
2018-03-02T09:26:01.209Z,98355.86
2018-03-02T09:28:28.668Z,98361.59
2018-03-02T09:30:56.058Z,98356.84
2018-03-02T09:33:23.440Z,98357.28
2018-03-02T09:35:50.881Z,98353.59
2018-03-02T09:38:18.272Z,98350.09
2018-03-02T09:40:45.725Z,98357.81
2018-03-02T09:43:13.140Z,98366.53
2018-03-02T09:45:40.605Z,98364.88
2018-03-02T09:48:07.978Z,98360.48
2018-03-02T09:50:35.808Z,98362.16
2018-03-02T09:53:03.262Z,98371.58
2018-03-02T09:55:30.654Z,98357.44
2018-03-02T09:57:58.028Z,98359.03
2018-03-02T10:00:25.449Z,98353.78
2018-03-02T10:02:52.852Z,98353.05
2018-03-02T10:05:20.240Z,98358.67
2018-03-02T10:07:47.677Z,98354.91
2018-03-02T10:10:15.106Z,98343.89
2018-03-02T10:12:42.923Z,98345.34
2018-03-02T10:15:10.336Z,98347.20
2018-03-02T10:17:37.719Z,98342.83
2018-03-02T10:20:05.093Z,98348.31
2018-03-02T10:22:32.496Z,98349.48
2018-03-02T10:25:00.033Z,98358.37
2018-03-02T10:27:27.416Z,98353.36
2018-03-02T10:29:54.807Z,98353.72
2018-03-02T10:32:22.369Z,98344.60
2018-03-02T10:34:49.992Z,98346.43
2018-03-02T10:37:17.404Z,98344.66
2018-03-02T10:39:44.839Z,98349.09
2018-03-02T10:42:12.986Z,98345.80
2018-03-02T10:44:40.408Z,98344.11
2018-03-02T10:47:07.797Z,98347.45
2018-03-02T10:49:35.201Z,98347.41
2018-03-02T10:52:02.608Z,98350.61
2018-03-02T10:54:29.995Z,98353.79
2018-03-02T10:56:57.392Z,98346.84
2018-03-02T10:59:24.877Z,98347.30
2018-03-02T11:01:54.204Z,98344.38
2018-03-02T11:04:21.573Z,98343.34
2018-03-02T11:06:48.965Z,98346.91
2018-03-02T11:09:16.372Z,98345.11
2018-03-02T11:11:43.852Z,98343.27
2018-03-02T11:14:11.257Z,98347.35
2018-03-02T11:16:38.641Z,98351.25
2018-03-02T11:19:06.609Z,98346.05
2018-03-02T11:21:34.055Z,98340.97
2018-03-02T11:24:01.424Z,98334.58
2018-03-02T11:26:28.821Z,98328.91
2018-03-02T11:28:56.206Z,98335.61
2018-03-02T11:31:23.624Z,98335.03
2018-03-02T11:33:51.049Z,98332.44
2018-03-02T11:36:18.460Z,98321.88
2018-03-02T11:38:45.939Z,98330.45
2018-03-02T11:41:13.324Z,98331.94
2018-03-02T11:43:40.729Z,98327.74
2018-03-02T11:46:08.109Z,98333.25
2018-03-02T11:48:35.508Z,98333.17
2018-03-02T11:51:02.889Z,98330.76
2018-03-02T11:53:30.282Z,98320.07
2018-03-02T11:55:57.680Z,98327.11
2018-03-02T11:58:25.087Z,98323.57
2018-03-02T12:00:52.531Z,98325.38
2018-03-02T12:03:19.972Z,98328.42
2018-03-02T12:05:51.338Z,98322.02
2018-03-02T12:08:18.793Z,98322.07
2018-03-02T12:10:46.245Z,98329.13
2018-03-02T12:13:14.488Z,98328.21
2018-03-02T12:15:43.241Z,98327.36
2018-03-02T12:18:10.933Z,98330.73
2018-03-02T12:20:38.680Z,98333.52
2018-03-02T12:23:06.079Z,98332.51
2018-03-02T12:25:33.485Z,98331.73
2018-03-02T12:28:00.869Z,98335.11
2018-03-02T12:30:28.264Z,98338.33
2018-03-02T12:32:55.646Z,98343.12
2018-03-02T12:35:23.068Z,98346.63
2018-03-02T12:37:50.445Z,98346.78
2018-03-02T12:40:17.919Z,98347.37
2018-03-02T12:42:45.329Z,98351.84
2018-03-02T12:45:13.430Z,98347.97
2018-03-02T12:47:41.125Z,98362.92
2018-03-02T12:50:08.509Z,98363.75
2018-03-02T12:52:35.887Z,98363.36
2018-03-02T12:55:03.414Z,98362.54
2018-03-02T12:57:30.825Z,98366.69
2018-03-02T12:59:58.200Z,98364.08
2018-03-02T13:02:25.609Z,98364.68
2018-03-02T13:04:53.033Z,98355.32
2018-03-02T13:07:20.424Z,98367.30
2018-03-02T13:09:47.916Z,98367.86
2018-03-02T13:12:15.344Z,98372.52
2018-03-02T13:14:42.706Z,98371.95
2018-03-02T13:17:10.102Z,98378.44
2018-03-02T13:19:37.499Z,98374.84
2018-03-02T13:22:04.892Z,98381.10
2018-03-02T13:24:32.281Z,98382.45
2018-03-02T13:27:11.356Z,98385.94
2018-03-02T13:29:38.757Z,98387.67
2018-03-02T13:32:06.172Z,98396.39
2018-03-02T13:34:45.367Z,98397.19
2018-03-02T13:37:13.677Z,98395.80
2018-03-02T13:39:52.927Z,98390.27
2018-03-02T13:42:20.321Z,98388.61
2018-03-02T13:44:47.757Z,98386.56
2018-03-02T13:47:15.127Z,98382.39
2018-03-02T13:49:54.218Z,98383.36
2018-03-02T13:52:21.614Z,98380.18
2018-03-02T13:54:49.065Z,98378.86
2018-03-02T13:57:28.493Z,98383.27
2018-03-02T13:59:55.866Z,98370.83
2018-03-02T14:02:35.108Z,98369.68
2018-03-02T14:05:02.527Z,98372.11
2018-03-02T14:07:30.003Z,98370.53
2018-03-02T14:09:57.384Z,98367.45
2018-03-02T14:12:24.797Z,98366.09
2018-03-02T14:14:52.200Z,98362.25
2018-03-02T14:17:19.585Z,98356.73
2018-03-02T14:19:46.982Z,98356.55
2018-03-02T14:22:14.401Z,98356.27
2018-03-02T14:24:42.583Z,98361.25
2018-03-02T14:27:09.992Z,98361.31
2018-03-02T14:29:37.372Z,98364.60
2018-03-02T14:32:04.790Z,98372.09
2018-03-02T14:34:32.178Z,98367.00
2018-03-02T14:36:59.564Z,98374.19
2018-03-02T14:39:26.997Z,98364.27
2018-03-02T14:41:54.376Z,98360.86
2018-03-02T14:44:21.876Z,98363.43
2018-03-02T14:46:49.270Z,98362.83
2018-03-02T14:49:16.663Z,98359.30
2018-03-02T14:51:44.103Z,98357.07
2018-03-02T14:54:11.491Z,98357.92
2018-03-02T14:56:38.885Z,98356.98
2018-03-02T14:59:06.272Z,98362.28
2018-03-02T15:01:33.661Z,98371.25
2018-03-02T15:04:01.060Z,98383.45
2018-03-02T15:06:28.689Z,98389.23
2018-03-02T15:08:56.165Z,98388.66
2018-03-02T15:11:23.529Z,98387.05
2018-03-02T15:13:50.928Z,98395.20
2018-03-02T15:16:18.335Z,98394.62
2018-03-02T15:18:45.736Z,98389.79
2018-03-02T15:21:14.169Z,98391.05
2018-03-02T15:23:41.566Z,98389.08
2018-03-02T15:26:10.016Z,98396.40
2018-03-02T15:28:37.400Z,98397.31
2018-03-02T15:31:04.808Z,98398.53
2018-03-02T15:33:32.494Z,98406.11
2018-03-02T15:35:59.880Z,98410.66
2018-03-02T15:38:27.504Z,98411.45
2018-03-02T15:40:54.895Z,98416.84
2018-03-02T15:43:22.422Z,98424.09
2018-03-02T15:45:49.853Z,98419.27
2018-03-02T15:48:17.394Z,98418.45
2018-03-02T15:50:44.813Z,98427.77
2018-03-02T15:53:12.197Z,98426.67
2018-03-02T15:55:39.612Z,98430.02
2018-03-02T15:58:07.029Z,98440.27
2018-03-02T16:00:34.415Z,98444.88
2018-03-02T16:03:01.887Z,98453.95
2018-03-02T16:05:29.267Z,98452.50
2018-03-02T16:07:56.645Z,98455.20
2018-03-02T16:10:24.039Z,98476.33
2018-03-02T16:12:51.450Z,98474.22
2018-03-02T16:15:18.885Z,98471.38
2018-03-02T16:17:46.264Z,98477.10
2018-03-02T16:20:14.481Z,98476.83
2018-03-02T16:22:41.899Z,98481.50
2018-03-02T16:25:09.319Z,98472.29
2018-03-02T16:27:36.735Z,98474.73
2018-03-02T16:30:04.172Z,98476.98
2018-03-02T16:32:31.594Z,98473.22
2018-03-02T16:34:59.002Z,98470.42
2018-03-02T16:37:26.402Z,98481.66
2018-03-02T16:39:53.795Z,98481.95
2018-03-02T16:42:21.196Z,98486.91
2018-03-02T16:44:48.634Z,98484.81
2018-03-02T16:47:15.999Z,98489.31
2018-03-02T16:49:43.759Z,98496.24
2018-03-02T16:52:11.143Z,98485.39
2018-03-02T16:54:38.537Z,98490.17
2018-03-02T16:57:05.917Z,98493.80
2018-03-02T16:59:33.388Z,98506.95
2018-03-02T17:02:00.782Z,98495.81
2018-03-02T17:04:28.230Z,98503.42
2018-03-02T17:06:55.628Z,98507.41
2018-03-02T17:09:23.188Z,98512.70
2018-03-02T17:11:50.686Z,98512.39
2018-03-02T17:14:18.167Z,98511.80
2018-03-02T17:16:45.552Z,98518.00
2018-03-02T17:19:12.928Z,98519.08
2018-03-02T17:21:40.356Z,98521.87
2018-03-02T17:24:07.739Z,98521.25
2018-03-02T17:26:35.262Z,98527.08
2018-03-02T17:29:02.650Z,98531.51
2018-03-02T17:31:30.057Z,98530.47
2018-03-02T17:33:57.439Z,98536.36
2018-03-02T17:36:24.830Z,98539.70
2018-03-02T17:38:52.231Z,98535.31
2018-03-02T17:41:19.625Z,98542.24
2018-03-02T17:43:47.049Z,98540.15
2018-03-02T17:46:14.473Z,98545.95
2018-03-02T17:48:41.893Z,98552.07
2018-03-02T17:51:09.347Z,98551.00
2018-03-02T17:53:36.753Z,98557.59
2018-03-02T17:56:04.509Z,98554.52
2018-03-02T17:58:31.904Z,98564.34
2018-03-02T18:00:59.293Z,98556.72
2018-03-02T18:03:26.709Z,98567.53
2018-03-02T18:05:54.090Z,98557.09
2018-03-02T18:08:21.492Z,98559.20
2018-03-02T18:10:48.890Z,98560.55
2018-03-02T18:13:16.284Z,98557.75
2018-03-02T18:15:43.772Z,98564.02
2018-03-02T18:18:11.151Z,98569.73
2018-03-02T18:20:39.056Z,98565.86
2018-03-02T18:23:06.442Z,98571.23
2018-03-02T18:25:33.851Z,98570.48
2018-03-02T18:28:01.437Z,98571.70
2018-03-02T18:30:28.858Z,98571.55
2018-03-02T18:32:56.269Z,98568.34
2018-03-02T18:35:23.715Z,98576.85
2018-03-02T18:37:51.155Z,98578.57
2018-03-02T18:40:18.549Z,98572.98
2018-03-02T18:42:48.989Z,98575.13
2018-03-02T18:45:16.374Z,98567.77
2018-03-02T18:47:43.868Z,98572.07
2018-03-02T18:50:11.279Z,98565.20
2018-03-02T18:52:38.809Z,98572.48
2018-03-02T18:55:06.176Z,98577.07
2018-03-02T18:57:33.569Z,98581.33
2018-03-02T19:00:00.980Z,98593.27
2018-03-02T19:02:28.413Z,98586.45
2018-03-02T19:04:55.816Z,98592.06
2018-03-02T19:07:23.416Z,98592.62
2018-03-02T19:09:50.796Z,98590.63
2018-03-02T19:12:18.216Z,98586.97
2018-03-02T19:14:45.604Z,98577.84
2018-03-02T19:17:12.996Z,98577.86
2018-03-02T19:19:40.389Z,98577.08
2018-03-02T19:22:07.787Z,98579.30
2018-03-02T19:24:35.174Z,98579.92
2018-03-02T19:27:02.651Z,98587.41
2018-03-02T19:29:30.045Z,98577.98
2018-03-02T19:31:57.461Z,98582.84
2018-03-02T19:34:25.049Z,98585.33
2018-03-02T19:36:52.442Z,98588.45
2018-03-02T19:39:20.250Z,98578.42
2018-03-02T19:41:48.099Z,98586.27
2018-03-02T19:44:15.496Z,98587.53
2018-03-02T19:46:42.892Z,98591.83
2018-03-02T19:49:10.988Z,98590.89
2018-03-02T19:51:38.442Z,98590.08
2018-03-02T19:54:05.804Z,98590.41
2018-03-02T19:56:34.085Z,98592.77
2018-03-02T19:59:01.479Z,98597.04
2018-03-02T20:01:28.892Z,98602.77
2018-03-02T20:03:56.275Z,98609.28
2018-03-02T20:06:23.708Z,98604.45
2018-03-02T20:08:51.104Z,98619.83
2018-03-02T20:11:19.301Z,98625.95
2018-03-02T20:13:46.675Z,98628.28
2018-03-02T20:16:14.176Z,98619.94
2018-03-02T20:18:41.735Z,98630.52
2018-03-02T20:21:09.137Z,98631.70
2018-03-02T20:23:36.540Z,98634.72
2018-03-02T20:26:03.977Z,98639.83
2018-03-02T20:28:31.473Z,98631.06
2018-03-02T20:30:58.851Z,98640.11
2018-03-02T20:33:26.289Z,98630.64
2018-03-02T20:35:53.695Z,98635.94
2018-03-02T20:38:21.093Z,98633.23
2018-03-02T20:40:48.543Z,98629.70
2018-03-02T20:43:15.975Z,98628.03
2018-03-02T20:45:43.375Z,98621.52
2018-03-02T20:48:10.777Z,98626.45
2018-03-02T20:50:38.255Z,98625.91
2018-03-02T20:53:05.837Z,98629.31
2018-03-02T20:55:33.260Z,98633.00
2018-03-02T20:58:00.905Z,98631.89
2018-03-02T21:00:28.311Z,98625.56
2018-03-02T21:02:55.748Z,98628.82
2018-03-02T21:05:23.166Z,98625.32
2018-03-02T21:07:50.608Z,98624.25
2018-03-02T21:10:18.024Z,98620.28
2018-03-02T21:12:45.775Z,98627.73
2018-03-02T21:15:13.154Z,98630.44
2018-03-02T21:17:40.535Z,98622.28
2018-03-02T21:20:08.052Z,98628.36
2018-03-02T21:22:35.475Z,98628.90
2018-03-02T21:25:02.958Z,98628.24
2018-03-02T21:27:30.414Z,98627.62
2018-03-02T21:29:57.787Z,98632.70
2018-03-02T21:32:25.356Z,98625.59
2018-03-02T21:34:52.776Z,98627.42
2018-03-02T21:37:20.465Z,98618.95
2018-03-02T21:39:47.857Z,98619.94
2018-03-02T21:42:15.858Z,98619.31
2018-03-02T21:44:43.279Z,98621.26
2018-03-02T21:47:10.657Z,98612.95
2018-03-02T21:49:38.076Z,98617.57
2018-03-02T21:52:05.618Z,98615.49
2018-03-02T21:54:33.008Z,98615.20
2018-03-02T21:57:00.460Z,98612.00
2018-03-02T21:59:27.860Z,98607.69
2018-03-02T22:01:55.240Z,98608.19
2018-03-02T22:04:22.637Z,98614.14
2018-03-02T22:06:50.027Z,98614.75
2018-03-02T22:09:17.584Z,98613.56
2018-03-02T22:11:44.987Z,98620.50
2018-03-02T22:14:12.357Z,98615.49
2018-03-02T22:16:39.748Z,98621.69
2018-03-02T22:19:07.132Z,98622.73
2018-03-02T22:21:34.527Z,98621.97
2018-03-02T22:24:01.986Z,98621.22
2018-03-02T22:26:33.910Z,98622.63
2018-03-02T22:29:04.062Z,98623.81
2018-03-02T22:31:32.704Z,98627.13
2018-03-02T22:34:00.089Z,98626.70
2018-03-02T22:36:27.634Z,98626.25
2018-03-02T22:38:55.018Z,98630.03
2018-03-02T22:41:22.400Z,98621.59
2018-03-02T22:43:49.789Z,98619.05
2018-03-02T22:46:17.177Z,98619.51
2018-03-02T22:48:45.227Z,98620.36
2018-03-02T22:51:12.608Z,98620.90
2018-03-02T22:53:40.063Z,98610.48
2018-03-02T22:56:07.493Z,98613.72
2018-03-02T22:58:34.876Z,98610.61
2018-03-02T23:01:02.647Z,98611.21
2018-03-02T23:03:30.067Z,98608.52
2018-03-02T23:05:57.641Z,98600.44
2018-03-02T23:08:25.058Z,98608.09
2018-03-02T23:10:52.451Z,98607.44
2018-03-02T23:13:19.872Z,98612.49
2018-03-02T23:15:47.655Z,98602.19
2018-03-02T23:18:15.070Z,98604.75
2018-03-02T23:20:42.526Z,98607.44
2018-03-02T23:23:09.949Z,98601.91
2018-03-02T23:25:37.320Z,98599.93
2018-03-02T23:28:06.024Z,98601.19
2018-03-02T23:30:33.420Z,98599.09
2018-03-02T23:33:00.953Z,98593.63
2018-03-02T23:35:28.409Z,98589.97
2018-03-02T23:37:55.788Z,98602.91
2018-03-02T23:40:23.168Z,98601.41
2018-03-02T23:42:50.722Z,98596.38
2018-03-02T23:45:18.108Z,98596.45
2018-03-02T23:47:45.740Z,98603.88
2018-03-02T23:50:13.127Z,98592.25
2018-03-02T23:52:41.066Z,98585.69
2018-03-02T23:55:08.462Z,98581.23
2018-03-02T23:57:35.844Z,98592.14
